createdAt,value
2023-02-09T00:00:10.098Z,27.45
2023-02-09T00:02:45.632Z,25.15
2023-02-09T00:05:13.518Z,28.08
2023-02-09T00:07:41.426Z,25.75
2023-02-09T00:10:09.857Z,25.50
2023-02-09T00:12:55.372Z,27.50
2023-02-09T00:15:24.661Z,26.15
2023-02-09T00:17:52.545Z,24.17
2023-02-09T00:20:20.668Z,28.45
2023-02-09T00:22:48.534Z,25.17
2023-02-09T00:25:16.389Z,26.70
2023-02-09T00:27:44.257Z,29.27
2023-02-09T00:30:13.424Z,24.75
2023-02-09T00:32:42.605Z,27.95
2023-02-09T00:35:10.505Z,25.67
2023-02-09T00:37:38.369Z,25.15
2023-02-09T00:40:08.220Z,27.30
2023-02-09T00:42:36.102Z,28.05
2023-02-09T00:45:03.952Z,26.48
2023-02-09T00:47:31.867Z,26.42
2023-02-09T00:50:01.106Z,25.17
2023-02-09T00:52:30.020Z,26.88
2023-02-09T00:54:57.873Z,26.48
2023-02-09T00:57:25.722Z,26.90
2023-02-09T00:59:53.570Z,26.55
2023-02-09T01:02:21.413Z,25.98
2023-02-09T01:04:49.292Z,29.70
2023-02-09T01:07:18.531Z,26.00
2023-02-09T01:09:46.467Z,25.38
2023-02-09T01:12:14.351Z,25.73
2023-02-09T01:14:42.365Z,24.88
2023-02-09T01:17:10.289Z,25.85
2023-02-09T01:19:38.260Z,23.77
2023-02-09T01:22:06.163Z,26.02
2023-02-09T01:24:35.972Z,24.85
2023-02-09T01:27:03.838Z,25.42
2023-02-09T01:29:32.499Z,25.35
2023-02-09T01:32:00.546Z,25.83
2023-02-09T01:34:28.488Z,24.65
2023-02-09T01:36:56.356Z,23.90
2023-02-09T01:39:24.244Z,23.08
2023-02-09T01:41:53.467Z,27.75
2023-02-09T01:44:59.030Z,27.52
2023-02-09T01:47:26.900Z,24.73
2023-02-09T01:49:54.795Z,25.35
2023-02-09T01:52:24.373Z,24.70
2023-02-09T01:54:53.676Z,25.45
2023-02-09T01:57:35.226Z,25.00
2023-02-09T02:00:06.510Z,23.48
2023-02-09T02:02:41.958Z,25.95
2023-02-09T02:05:09.939Z,24.00
2023-02-09T02:07:41.000Z,22.90
2023-02-09T02:10:09.269Z,24.17
2023-02-09T02:12:38.642Z,27.95
2023-02-09T02:15:07.028Z,25.05
2023-02-09T02:17:43.195Z,25.10
2023-02-09T02:20:25.497Z,26.92
2023-02-09T02:23:06.656Z,25.58
2023-02-09T02:26:21.778Z,23.40
2023-02-09T02:29:16.233Z,23.15
2023-02-09T02:32:13.745Z,24.00
2023-02-09T02:34:45.097Z,25.45
2023-02-09T02:37:18.685Z,24.63
2023-02-09T02:39:50.812Z,24.50
2023-02-09T02:42:44.879Z,25.15
2023-02-09T02:45:14.570Z,24.38
2023-02-09T02:47:44.430Z,24.85
2023-02-09T02:50:14.549Z,24.50
2023-02-09T02:52:43.486Z,24.73
2023-02-09T02:55:12.850Z,24.55
2023-02-09T02:57:41.606Z,26.30
2023-02-09T03:00:11.405Z,24.02
2023-02-09T03:02:40.765Z,22.58
2023-02-09T03:05:10.122Z,24.15
2023-02-09T03:07:38.068Z,23.40
2023-02-09T03:10:27.633Z,23.85
2023-02-09T03:13:02.202Z,24.33
2023-02-09T03:15:33.272Z,24.58
2023-02-09T03:18:02.520Z,24.95
2023-02-09T03:20:34.106Z,24.35
2023-02-09T03:23:02.820Z,23.05
2023-02-09T03:25:32.480Z,22.67
2023-02-09T03:28:02.729Z,26.00
2023-02-09T03:30:30.620Z,22.95
2023-02-09T03:32:58.561Z,22.17
2023-02-09T03:35:28.204Z,23.35
2023-02-09T03:37:57.381Z,25.38
2023-02-09T03:40:25.272Z,23.95
2023-02-09T03:42:53.306Z,24.75
2023-02-09T03:45:21.217Z,23.83
2023-02-09T03:47:49.275Z,24.42
2023-02-09T03:50:17.453Z,22.33
2023-02-09T03:52:45.345Z,26.33
2023-02-09T03:55:14.713Z,24.17
2023-02-09T03:57:42.592Z,26.60
2023-02-09T04:00:11.832Z,23.02
2023-02-09T04:02:43.321Z,23.40
2023-02-09T04:05:11.326Z,24.23
2023-02-09T04:07:39.389Z,22.05
2023-02-09T04:10:07.924Z,22.35
2023-02-09T04:12:37.087Z,24.42
2023-02-09T04:15:05.821Z,23.90
2023-02-09T04:17:33.658Z,22.25
2023-02-09T04:20:01.503Z,22.73
2023-02-09T04:22:29.387Z,23.33
2023-02-09T04:24:57.187Z,23.60
2023-02-09T04:27:25.015Z,22.27
2023-02-09T04:29:54.220Z,22.80
2023-02-09T04:32:22.129Z,22.85
2023-02-09T04:34:50.037Z,21.65
2023-02-09T04:37:17.920Z,23.27
2023-02-09T04:39:45.978Z,23.27
2023-02-09T04:42:13.868Z,24.08
2023-02-09T04:44:41.706Z,21.23
2023-02-09T04:47:10.916Z,23.20
2023-02-09T04:49:38.779Z,23.55
2023-02-09T04:52:06.699Z,21.90
2023-02-09T04:54:34.583Z,22.27
2023-02-09T04:57:20.225Z,22.50
2023-02-09T04:59:48.099Z,21.67
2023-02-09T05:02:17.345Z,19.67
2023-02-09T05:04:45.223Z,23.30
2023-02-09T05:07:13.087Z,22.77
2023-02-09T05:09:40.936Z,22.75
2023-02-09T05:12:10.162Z,23.40
2023-02-09T05:14:38.060Z,22.02
2023-02-09T05:17:05.916Z,22.17
2023-02-09T05:19:36.627Z,25.40
2023-02-09T05:22:04.481Z,21.58
2023-02-09T05:24:32.479Z,21.58
2023-02-09T05:27:00.366Z,21.60
2023-02-09T05:29:28.325Z,20.98
2023-02-09T05:31:56.347Z,22.50
2023-02-09T05:34:24.379Z,22.25
2023-02-09T05:36:53.587Z,21.95
2023-02-09T05:39:21.626Z,20.50
2023-02-09T05:42:06.883Z,20.95
2023-02-09T05:44:34.731Z,23.67
2023-02-09T05:47:02.615Z,22.50
2023-02-09T05:49:30.464Z,22.42
2023-02-09T05:51:59.629Z,21.10
2023-02-09T05:54:27.546Z,21.05
2023-02-09T05:56:55.431Z,21.60
2023-02-09T05:59:23.366Z,22.98
2023-02-09T06:01:51.250Z,21.92
2023-02-09T06:04:19.130Z,21.42
2023-02-09T06:06:46.965Z,21.83
2023-02-09T06:09:16.193Z,24.50
2023-02-09T06:11:44.057Z,21.70
2023-02-09T06:14:11.948Z,20.83
2023-02-09T06:16:40.698Z,21.65
2023-02-09T06:19:08.599Z,21.45
2023-02-09T06:21:36.456Z,21.15
2023-02-09T06:24:04.340Z,20.45
2023-02-09T06:26:33.548Z,19.90
2023-02-09T06:29:01.581Z,24.27
2023-02-09T06:31:29.602Z,21.95
2023-02-09T06:33:57.578Z,21.98
2023-02-09T06:36:25.696Z,29.85
2023-02-09T06:38:53.576Z,77.70
2023-02-09T06:41:21.435Z,83.45
2023-02-09T06:43:50.705Z,65.35
2023-02-09T06:46:18.805Z,58.92
2023-02-09T06:48:46.729Z,52.90
2023-02-09T06:51:15.588Z,43.15
2023-02-09T06:53:43.658Z,52.40
2023-02-09T06:56:11.789Z,58.85
2023-02-09T06:58:40.037Z,46.45
2023-02-09T07:01:10.492Z,40.83
2023-02-09T07:03:38.663Z,40.70
2023-02-09T07:06:07.878Z,40.28
2023-02-09T07:08:35.848Z,47.67
2023-02-09T07:11:04.217Z,45.05
2023-02-09T07:13:32.593Z,43.97
2023-02-09T07:16:01.143Z,43.55
2023-02-09T07:18:30.455Z,38.20
2023-02-09T07:20:59.015Z,39.28
2023-02-09T07:23:27.012Z,38.60
2023-02-09T07:25:54.922Z,38.80
2023-02-09T07:28:23.028Z,38.08
2023-02-09T07:30:51.962Z,33.95
2023-02-09T07:33:19.911Z,33.78
2023-02-09T07:35:49.282Z,30.70
2023-02-09T07:38:17.269Z,29.77
2023-02-09T07:40:46.812Z,32.55
2023-02-09T07:43:15.078Z,33.03
2023-02-09T07:45:43.144Z,30.08
2023-02-09T07:48:11.407Z,32.05
2023-02-09T07:50:39.293Z,29.42
2023-02-09T07:53:08.480Z,30.60
2023-02-09T07:55:36.347Z,28.73
2023-02-09T07:58:04.210Z,30.83
2023-02-09T08:00:32.181Z,28.75
2023-02-09T08:03:00.282Z,27.13
2023-02-09T08:05:31.765Z,26.85
2023-02-09T08:07:59.650Z,27.77
2023-02-09T08:10:28.827Z,27.27
2023-02-09T08:13:03.535Z,24.60
2023-02-09T08:15:34.483Z,30.45
2023-02-09T08:18:03.655Z,30.35
2023-02-09T08:20:31.787Z,28.00
2023-02-09T08:23:03.885Z,24.77
2023-02-09T08:25:33.233Z,27.58
2023-02-09T08:28:01.145Z,27.15
2023-02-09T08:30:29.099Z,25.80
2023-02-09T08:32:57.058Z,25.67
2023-02-09T08:35:24.924Z,25.13
2023-02-09T08:37:52.786Z,28.05
2023-02-09T08:40:21.148Z,28.27
2023-02-09T08:42:50.336Z,24.02
2023-02-09T08:45:18.360Z,24.88
2023-02-09T08:47:46.263Z,31.33
2023-02-09T08:50:14.271Z,25.10
2023-02-09T08:52:42.583Z,24.25
2023-02-09T08:55:10.581Z,24.92
2023-02-09T08:57:44.283Z,26.23
2023-02-09T09:00:15.923Z,23.85
2023-02-09T09:02:43.956Z,26.60
2023-02-09T09:05:11.818Z,25.42
2023-02-09T09:07:39.821Z,25.67
2023-02-09T09:10:09.192Z,25.02
2023-02-09T09:12:37.101Z,23.90
2023-02-09T09:15:05.317Z,24.88
2023-02-09T09:17:34.548Z,25.08
2023-02-09T09:20:02.458Z,23.25
2023-02-09T09:22:30.375Z,24.75
2023-02-09T09:24:58.276Z,21.92
2023-02-09T09:27:27.039Z,26.23
2023-02-09T09:29:55.188Z,23.17
2023-02-09T09:32:24.943Z,22.38
2023-02-09T09:34:55.159Z,25.17
2023-02-09T09:37:23.173Z,22.70
2023-02-09T09:39:51.042Z,31.45
2023-02-09T09:42:23.736Z,39.40
2023-02-09T09:44:51.618Z,39.78
2023-02-09T09:47:20.447Z,49.85
2023-02-09T09:49:48.355Z,40.53
2023-02-09T09:52:20.900Z,42.92
2023-02-09T09:54:48.837Z,43.30
2023-02-09T09:57:20.248Z,38.20
2023-02-09T09:59:48.139Z,38.78
2023-02-09T10:02:20.026Z,35.65
2023-02-09T10:04:48.609Z,35.55
2023-02-09T10:07:21.789Z,38.30
2023-02-09T10:09:52.830Z,39.67
2023-02-09T10:12:30.620Z,36.80
2023-02-09T10:14:58.479Z,31.63
2023-02-09T10:17:26.338Z,30.58
2023-02-09T10:20:02.393Z,36.13
2023-02-09T10:22:32.913Z,31.98
2023-02-09T10:25:00.927Z,33.10
2023-02-09T10:27:29.488Z,27.67
2023-02-09T10:29:57.922Z,29.65
2023-02-09T10:32:29.951Z,26.83
2023-02-09T10:34:57.937Z,27.35
2023-02-09T10:37:28.168Z,31.05
2023-02-09T10:40:06.875Z,28.20
2023-02-09T10:42:35.136Z,29.98
2023-02-09T10:45:07.367Z,27.33
2023-02-09T10:47:35.308Z,27.08
2023-02-09T10:50:08.838Z,29.42
2023-02-09T10:52:37.528Z,26.65
2023-02-09T10:55:08.028Z,28.60
2023-02-09T10:57:37.204Z,25.67
2023-02-09T11:00:28.914Z,26.38
2023-02-09T11:03:01.471Z,28.08
2023-02-09T11:05:33.993Z,26.10
2023-02-09T11:08:11.473Z,25.95
2023-02-09T11:10:42.782Z,24.05
2023-02-09T11:13:18.510Z,26.50
2023-02-09T11:15:50.243Z,24.45
2023-02-09T11:18:18.722Z,25.33
2023-02-09T11:20:49.149Z,25.52
2023-02-09T11:23:31.195Z,26.95
2023-02-09T11:26:02.459Z,23.10
2023-02-09T11:28:35.263Z,24.70
2023-02-09T11:31:35.824Z,27.58
2023-02-09T11:34:06.886Z,30.98
2023-02-09T11:36:42.463Z,35.35
2023-02-09T11:39:12.657Z,30.70
2023-02-09T11:42:02.170Z,32.28
2023-02-09T11:44:32.856Z,28.38
2023-02-09T11:47:04.281Z,28.67
2023-02-09T11:49:37.279Z,28.15
2023-02-09T11:52:05.399Z,30.35
2023-02-09T11:54:33.505Z,31.27
2023-02-09T11:57:04.208Z,32.35
2023-02-09T11:59:34.086Z,34.92
2023-02-09T12:02:05.440Z,31.15
2023-02-09T12:04:37.737Z,28.00
2023-02-09T12:07:11.241Z,29.92
2023-02-09T12:09:44.696Z,28.70
2023-02-09T12:12:20.243Z,26.98
2023-02-09T12:15:01.258Z,28.27
2023-02-09T12:17:32.929Z,27.13
2023-02-09T12:20:01.694Z,28.73
2023-02-09T12:22:54.700Z,27.60
2023-02-09T12:25:34.692Z,24.17
2023-02-09T12:28:18.477Z,24.75
2023-02-09T12:31:00.306Z,24.63
2023-02-09T12:33:32.279Z,24.23
2023-02-09T12:36:01.728Z,25.02
2023-02-09T12:39:08.104Z,20.95
2023-02-09T12:42:13.313Z,24.33
2023-02-09T12:44:54.394Z,22.30
2023-02-09T12:47:41.715Z,22.40
2023-02-09T12:50:26.141Z,20.20
2023-02-09T12:53:35.622Z,19.13
2023-02-09T12:56:05.365Z,23.38
2023-02-09T12:58:40.362Z,23.38
2023-02-09T13:01:09.777Z,25.27
2023-02-09T13:03:42.664Z,22.63
2023-02-09T13:06:23.058Z,23.40
2023-02-09T13:08:53.365Z,21.90
2023-02-09T13:11:28.003Z,24.85
2023-02-09T13:13:56.917Z,22.95
2023-02-09T13:16:40.570Z,22.35
2023-02-09T13:19:16.008Z,24.83
2023-02-09T13:21:47.314Z,22.38
2023-02-09T13:24:15.784Z,23.83
2023-02-09T13:26:50.860Z,24.95
2023-02-09T13:29:22.087Z,24.23
2023-02-09T13:31:57.919Z,23.08
2023-02-09T13:34:30.733Z,21.27
2023-02-09T13:37:04.002Z,20.08
2023-02-09T13:39:33.394Z,22.20
2023-02-09T13:42:01.332Z,23.23
2023-02-09T13:44:32.004Z,21.88
2023-02-09T13:47:01.916Z,20.83
2023-02-09T13:49:30.321Z,21.52
2023-02-09T13:52:14.523Z,20.73
2023-02-09T13:54:42.757Z,25.77
2023-02-09T13:57:11.441Z,22.17
2023-02-09T13:59:42.436Z,23.15
2023-02-09T14:02:20.584Z,22.77
2023-02-09T14:04:50.749Z,20.75
2023-02-09T14:07:20.799Z,20.75
2023-02-09T14:09:50.120Z,22.65
2023-02-09T14:12:19.385Z,24.85
2023-02-09T14:15:07.883Z,22.27
2023-02-09T14:17:38.889Z,25.85
2023-02-09T14:20:19.102Z,25.17
2023-02-09T14:22:46.957Z,21.17
2023-02-09T14:25:19.616Z,20.17
2023-02-09T14:31:04.780Z,18.98
2023-02-09T14:33:35.452Z,21.27
2023-02-09T14:36:03.365Z,20.33
2023-02-09T14:38:36.733Z,26.88
2023-02-09T14:41:31.104Z,21.60
2023-02-09T14:44:03.066Z,20.17
2023-02-09T14:46:31.311Z,18.35
2023-02-09T14:49:00.679Z,22.63
2023-02-09T14:51:28.655Z,20.70
2023-02-09T14:53:56.540Z,23.30
2023-02-09T14:56:28.601Z,19.30
2023-02-09T14:58:56.636Z,20.00
2023-02-09T15:01:24.906Z,19.08
2023-02-09T15:03:52.864Z,21.38
2023-02-09T15:06:22.185Z,19.60
2023-02-09T15:08:50.063Z,20.27
2023-02-09T15:11:42.478Z,20.67
2023-02-09T15:14:11.139Z,22.08
2023-02-09T15:16:39.103Z,20.45
2023-02-09T15:19:11.411Z,21.50
2023-02-09T15:21:40.709Z,29.95
2023-02-09T15:24:08.659Z,19.73
2023-02-09T15:26:37.123Z,25.55
2023-02-09T15:29:10.166Z,18.95
2023-02-09T15:31:38.195Z,21.38
2023-02-09T15:34:06.431Z,20.98
2023-02-09T15:36:34.366Z,23.92
2023-02-09T15:39:03.593Z,17.23
2023-02-09T15:41:49.060Z,21.33
2023-02-09T15:44:35.594Z,20.23
2023-02-09T15:47:21.072Z,18.48
2023-02-09T15:49:49.077Z,22.48
2023-02-09T15:52:17.546Z,19.67
2023-02-09T15:54:46.779Z,21.35
2023-02-09T15:57:14.905Z,20.83
2023-02-09T15:59:42.781Z,16.85
2023-02-09T16:02:13.988Z,18.65
2023-02-09T16:04:41.875Z,17.85
2023-02-09T16:07:11.595Z,20.30
2023-02-09T16:09:40.862Z,17.77
2023-02-09T16:12:11.502Z,20.63
2023-02-09T16:14:39.473Z,18.63
2023-02-09T16:17:08.073Z,18.80
2023-02-09T16:19:36.041Z,17.02
2023-02-09T16:22:05.389Z,21.10
2023-02-09T16:24:34.091Z,19.42
2023-02-09T16:27:02.129Z,17.58
2023-02-09T16:29:31.380Z,22.50
2023-02-09T16:31:59.295Z,16.45
2023-02-09T16:34:27.111Z,17.95
2023-02-09T16:36:54.989Z,18.05
2023-02-09T16:39:23.005Z,16.73
2023-02-09T16:41:51.491Z,19.40
2023-02-09T16:44:20.999Z,18.02
2023-02-09T16:46:50.914Z,16.20
2023-02-09T16:49:35.669Z,15.90
2023-02-09T16:52:05.727Z,17.13
2023-02-09T16:54:37.213Z,24.77
2023-02-09T16:57:05.416Z,18.48
2023-02-09T16:59:33.369Z,19.65
2023-02-09T17:02:02.603Z,18.73
2023-02-09T17:04:30.435Z,16.73
2023-02-09T17:06:58.260Z,18.77
2023-02-09T17:09:26.093Z,18.23
2023-02-09T17:11:53.902Z,18.13
2023-02-09T17:14:21.724Z,16.65
2023-02-09T17:16:49.967Z,18.15
2023-02-09T17:19:19.276Z,16.23
2023-02-09T17:21:47.166Z,17.08
2023-02-09T17:24:16.015Z,16.02
2023-02-09T17:26:44.008Z,16.75
2023-02-09T17:29:11.994Z,16.25
2023-02-09T17:31:52.410Z,18.55
2023-02-09T17:34:26.923Z,22.63
2023-02-09T17:36:54.960Z,20.10
2023-02-09T17:39:22.807Z,18.45
2023-02-09T17:41:50.678Z,19.23
2023-02-09T17:44:28.971Z,22.02
2023-02-09T17:47:03.386Z,19.75
2023-02-09T17:49:33.263Z,17.95
2023-02-09T17:52:01.170Z,18.10
2023-02-09T17:54:29.117Z,24.15
2023-02-09T17:56:56.964Z,20.00
2023-02-09T17:59:24.909Z,18.48
2023-02-09T18:01:55.218Z,18.50
2023-02-09T18:04:26.719Z,18.40
2023-02-09T18:06:57.769Z,15.32
2023-02-09T18:09:25.766Z,20.45
2023-02-09T18:11:58.673Z,20.67
2023-02-09T18:14:26.993Z,20.30
2023-02-09T18:16:55.145Z,17.05
2023-02-09T18:19:23.567Z,19.10
2023-02-09T18:21:52.188Z,16.60
2023-02-09T18:24:22.011Z,21.55
2023-02-09T18:26:51.175Z,17.77
2023-02-09T18:29:20.161Z,20.35
2023-02-09T18:31:48.189Z,17.25
2023-02-09T18:34:16.278Z,18.65
2023-02-09T18:36:44.357Z,19.55
2023-02-09T18:39:12.421Z,19.08
2023-02-09T18:41:41.890Z,19.45
2023-02-09T18:44:09.874Z,18.95
2023-02-09T18:46:38.708Z,20.80
2023-02-09T18:49:06.789Z,21.13
2023-02-09T18:51:34.785Z,18.80
2023-02-09T18:54:04.386Z,24.00
2023-02-09T18:56:32.332Z,26.83
2023-02-09T18:59:01.843Z,25.33
2023-02-09T19:01:29.884Z,24.20
2023-02-09T19:03:57.899Z,24.70
2023-02-09T19:06:26.246Z,26.10
2023-02-09T19:08:54.326Z,26.25
2023-02-09T19:11:23.224Z,30.15
2023-02-09T19:14:05.298Z,24.60
2023-02-09T19:16:34.696Z,28.63
2023-02-09T19:19:02.595Z,28.33
2023-02-09T19:21:31.911Z,28.48
2023-02-09T19:23:59.819Z,28.48
2023-02-09T19:26:27.809Z,28.67
2023-02-09T19:28:57.364Z,27.00
2023-02-09T19:31:25.780Z,26.73
2023-02-09T19:33:57.397Z,28.65
2023-02-09T19:36:27.762Z,25.30
2023-02-09T19:38:56.024Z,31.45
2023-02-09T19:41:25.758Z,27.05
2023-02-09T19:43:55.735Z,28.20
2023-02-09T19:46:23.825Z,26.38
2023-02-09T19:48:53.616Z,22.95
2023-02-09T19:51:23.167Z,23.58
2023-02-09T19:53:51.304Z,29.33
2023-02-09T19:56:20.685Z,25.05
2023-02-09T19:58:48.594Z,26.48
2023-02-09T20:01:16.865Z,25.40
2023-02-09T20:03:44.838Z,25.83
2023-02-09T20:06:13.734Z,25.77
2023-02-09T20:08:43.175Z,30.77
2023-02-09T20:11:12.738Z,29.50
2023-02-09T20:13:40.780Z,28.40
2023-02-09T20:16:09.557Z,25.20
2023-02-09T20:18:37.609Z,28.38
2023-02-09T20:21:07.705Z,25.75
2023-02-09T20:23:35.666Z,30.88
2023-02-09T20:26:09.761Z,28.23
2023-02-09T20:28:37.759Z,28.33
2023-02-09T20:31:06.856Z,23.17
2023-02-09T20:33:34.886Z,28.90
2023-02-09T20:36:04.909Z,26.17
2023-02-09T20:38:32.845Z,26.48
2023-02-09T20:41:00.764Z,36.08
2023-02-09T20:43:47.785Z,23.77
2023-02-09T20:46:36.330Z,28.33
2023-02-09T20:49:04.391Z,23.73
2023-02-09T20:51:32.404Z,39.80
2023-02-09T20:54:00.771Z,24.75
2023-02-09T20:56:28.845Z,27.50
2023-02-09T20:58:58.129Z,22.88
2023-02-09T21:01:26.821Z,22.50
2023-02-09T21:03:56.517Z,26.48
2023-02-09T21:06:24.492Z,25.98
2023-02-09T21:08:52.405Z,46.78
2023-02-09T21:11:20.434Z,43.10
2023-02-09T21:13:48.364Z,41.25
2023-02-09T21:16:17.661Z,28.90
2023-02-09T21:18:45.795Z,41.85
2023-02-09T21:21:15.674Z,38.78
2023-02-09T21:23:43.637Z,36.97
2023-02-09T21:26:13.134Z,34.42
2023-02-09T21:28:41.002Z,28.85
2023-02-09T21:31:12.475Z,27.77
2023-02-09T21:33:41.769Z,26.35
2023-02-09T21:36:09.914Z,26.83
2023-02-09T21:38:41.442Z,28.65
2023-02-09T21:41:30.436Z,25.65
2023-02-09T21:43:58.374Z,24.50
2023-02-09T21:46:26.314Z,27.52
2023-02-09T21:48:55.730Z,23.88
2023-02-09T21:51:23.681Z,26.73
2023-02-09T21:53:51.582Z,27.13
2023-02-09T21:56:19.430Z,22.25
2023-02-09T21:58:47.359Z,27.05
2023-02-09T22:01:15.327Z,24.13
2023-02-09T22:03:43.396Z,21.80
2023-02-09T22:06:12.665Z,24.48
2023-02-09T22:08:41.426Z,22.15
2023-02-09T22:11:09.269Z,25.33
2023-02-09T22:13:37.202Z,24.77
2023-02-09T22:16:07.246Z,21.55
2023-02-09T22:18:35.123Z,24.42
2023-02-09T22:21:05.307Z,22.33
2023-02-09T22:23:34.616Z,23.08
2023-02-09T22:26:02.627Z,21.40
2023-02-09T22:28:30.542Z,21.90
2023-02-09T22:30:58.411Z,22.77
2023-02-09T22:33:26.446Z,19.38
2023-02-09T22:35:54.324Z,19.08
2023-02-09T22:38:22.178Z,19.48
2023-02-09T22:40:51.457Z,19.92
2023-02-09T22:43:19.355Z,19.90
2023-02-09T22:45:47.473Z,19.50
2023-02-09T22:48:15.516Z,19.65
2023-02-09T22:50:43.406Z,21.15
2023-02-09T22:53:11.261Z,16.77
2023-02-09T22:55:39.179Z,19.27
2023-02-09T22:58:08.435Z,20.13
2023-02-09T23:00:36.422Z,18.33
2023-02-09T23:03:04.324Z,23.20
2023-02-09T23:05:32.254Z,18.13
2023-02-09T23:08:00.157Z,18.52
2023-02-09T23:10:28.045Z,18.63
2023-02-09T23:12:55.918Z,19.80
2023-02-09T23:15:25.141Z,20.30
2023-02-09T23:17:53.023Z,20.13
2023-02-09T23:20:21.452Z,18.67
2023-02-09T23:22:49.766Z,16.40
2023-02-09T23:25:17.751Z,18.90
2023-02-09T23:27:45.586Z,17.92
2023-02-09T23:30:14.348Z,18.10
2023-02-09T23:32:43.521Z,18.08
2023-02-09T23:35:12.064Z,21.48
2023-02-09T23:37:40.651Z,19.05
2023-02-09T23:40:09.247Z,20.52
2023-02-09T23:42:37.091Z,17.88
2023-02-09T23:45:06.248Z,16.67
2023-02-09T23:47:34.432Z,16.98
2023-02-09T23:50:03.628Z,18.08
2023-02-09T23:52:31.469Z,16.02
2023-02-09T23:54:59.386Z,18.75
2023-02-09T23:57:27.239Z,17.52
2023-02-09T23:59:55.098Z,16.70
